sensor_id;sensor_type;location;lat;lon;timestamp;P1;durP1;ratioP1;P2;durP2;ratioP2
49610;SDS011;35515;48.766;9.176;2023-10-31T00:01:05;1.42;;;0.70;;
49610;SDS011;35515;48.766;9.176;2023-10-31T00:03:32;0.82;;;0.60;;
49610;SDS011;35515;48.766;9.176;2023-10-31T00:06:00;1.80;;;0.80;;
49610;SDS011;35515;48.766;9.176;2023-10-31T00:08:26;1.25;;;0.70;;
49610;SDS011;35515;48.766;9.176;2023-10-31T00:10:53;0.60;;;0.60;;
49610;SDS011;35515;48.766;9.176;2023-10-31T00:13:19;1.63;;;0.60;;
49610;SDS011;35515;48.766;9.176;2023-10-31T00:15:46;0.70;;;0.70;;
49610;SDS011;35515;48.766;9.176;2023-10-31T00:18:12;1.75;;;0.60;;
49610;SDS011;35515;48.766;9.176;2023-10-31T00:20:39;0.63;;;0.63;;
49610;SDS011;35515;48.766;9.176;2023-10-31T00:23:07;0.65;;;0.63;;
49610;SDS011;35515;48.766;9.176;2023-10-31T00:25:33;1.65;;;0.70;;
49610;SDS011;35515;48.766;9.176;2023-10-31T00:28:00;2.35;;;0.60;;
49610;SDS011;35515;48.766;9.176;2023-10-31T00:30:26;1.13;;;0.70;;
49610;SDS011;35515;48.766;9.176;2023-10-31T00:32:53;1.95;;;0.77;;
49610;SDS011;35515;48.766;9.176;2023-10-31T00:35:19;1.85;;;0.75;;
49610;SDS011;35515;48.766;9.176;2023-10-31T00:37:46;0.70;;;0.70;;
49610;SDS011;35515;48.766;9.176;2023-10-31T00:40:14;0.45;;;0.45;;
49610;SDS011;35515;48.766;9.176;2023-10-31T00:42:41;0.75;;;0.47;;
49610;SDS011;35515;48.766;9.176;2023-10-31T00:45:08;0.70;;;0.70;;
49610;SDS011;35515;48.766;9.176;2023-10-31T00:47:35;1.63;;;0.75;;
49610;SDS011;35515;48.766;9.176;2023-10-31T00:50:02;0.93;;;0.60;;
49610;SDS011;35515;48.766;9.176;2023-10-31T00:52:29;0.68;;;0.60;;
49610;SDS011;35515;48.766;9.176;2023-10-31T00:54:55;1.02;;;0.75;;
49610;SDS011;35515;48.766;9.176;2023-10-31T00:57:23;3.25;;;0.68;;
49610;SDS011;35515;48.766;9.176;2023-10-31T00:59:50;0.77;;;0.70;;
49610;SDS011;35515;48.766;9.176;2023-10-31T01:02:16;0.60;;;0.60;;
49610;SDS011;35515;48.766;9.176;2023-10-31T01:04:43;0.85;;;0.70;;
49610;SDS011;35515;48.766;9.176;2023-10-31T01:07:10;0.80;;;0.80;;
49610;SDS011;35515;48.766;9.176;2023-10-31T01:09:37;2.53;;;0.63;;
49610;SDS011;35515;48.766;9.176;2023-10-31T01:12:04;1.77;;;0.65;;
49610;SDS011;35515;48.766;9.176;2023-10-31T01:14:33;0.68;;;0.60;;
49610;SDS011;35515;48.766;9.176;2023-10-31T01:17:00;1.17;;;0.73;;
49610;SDS011;35515;48.766;9.176;2023-10-31T01:19:26;1.92;;;0.65;;
49610;SDS011;35515;48.766;9.176;2023-10-31T01:21:53;2.05;;;0.65;;
49610;SDS011;35515;48.766;9.176;2023-10-31T01:24:19;2.60;;;0.80;;
49610;SDS011;35515;48.766;9.176;2023-10-31T01:26:46;2.08;;;0.65;;
49610;SDS011;35515;48.766;9.176;2023-10-31T01:29:12;0.82;;;0.80;;
49610;SDS011;35515;48.766;9.176;2023-10-31T01:31:41;0.85;;;0.80;;
49610;SDS011;35515;48.766;9.176;2023-10-31T01:34:08;2.47;;;0.93;;
49610;SDS011;35515;48.766;9.176;2023-10-31T01:36:35;1.45;;;0.82;;
49610;SDS011;35515;48.766;9.176;2023-10-31T01:39:01;1.95;;;0.75;;
49610;SDS011;35515;48.766;9.176;2023-10-31T01:41:28;0.90;;;0.80;;
49610;SDS011;35515;48.766;9.176;2023-10-31T01:43:54;1.00;;;0.68;;
49610;SDS011;35515;48.766;9.176;2023-10-31T01:46:21;1.73;;;0.90;;
49610;SDS011;35515;48.766;9.176;2023-10-31T01:48:48;2.17;;;0.90;;
49610;SDS011;35515;48.766;9.176;2023-10-31T01:51:15;3.45;;;0.82;;
49610;SDS011;35515;48.766;9.176;2023-10-31T01:53:42;1.33;;;0.88;;
49610;SDS011;35515;48.766;9.176;2023-10-31T01:56:08;1.15;;;0.75;;
49610;SDS011;35515;48.766;9.176;2023-10-31T01:58:36;1.42;;;0.75;;
49610;SDS011;35515;48.766;9.176;2023-10-31T02:01:02;1.98;;;0.82;;
49610;SDS011;35515;48.766;9.176;2023-10-31T02:03:30;2.08;;;0.70;;
49610;SDS011;35515;48.766;9.176;2023-10-31T02:05:59;2.33;;;0.90;;
49610;SDS011;35515;48.766;9.176;2023-10-31T02:08:26;2.40;;;0.95;;
49610;SDS011;35515;48.766;9.176;2023-10-31T02:10:52;4.10;;;1.83;;
49610;SDS011;35515;48.766;9.176;2023-10-31T02:13:19;1.77;;;1.13;;
49610;SDS011;35515;48.766;9.176;2023-10-31T02:15:45;0.95;;;0.88;;
49610;SDS011;35515;48.766;9.176;2023-10-31T02:18:12;1.63;;;0.98;;
49610;SDS011;35515;48.766;9.176;2023-10-31T02:20:39;0.80;;;0.80;;
49610;SDS011;35515;48.766;9.176;2023-10-31T02:23:07;1.67;;;0.90;;
49610;SDS011;35515;48.766;9.176;2023-10-31T02:25:33;1.92;;;0.80;;
49610;SDS011;35515;48.766;9.176;2023-10-31T02:28:00;1.17;;;0.80;;
49610;SDS011;35515;48.766;9.176;2023-10-31T02:30:26;0.70;;;0.70;;
49610;SDS011;35515;48.766;9.176;2023-10-31T02:32:53;1.88;;;0.90;;
49610;SDS011;35515;48.766;9.176;2023-10-31T02:35:20;0.80;;;0.80;;
49610;SDS011;35515;48.766;9.176;2023-10-31T02:37:47;2.03;;;1.10;;
49610;SDS011;35515;48.766;9.176;2023-10-31T02:40:15;0.70;;;0.70;;
49610;SDS011;35515;48.766;9.176;2023-10-31T02:42:42;1.38;;;0.90;;
49610;SDS011;35515;48.766;9.176;2023-10-31T02:45:09;1.05;;;0.80;;
49610;SDS011;35515;48.766;9.176;2023-10-31T02:47:36;1.00;;;0.80;;
49610;SDS011;35515;48.766;9.176;2023-10-31T02:50:02;2.95;;;0.85;;
49610;SDS011;35515;48.766;9.176;2023-10-31T02:52:29;1.83;;;1.00;;
49610;SDS011;35515;48.766;9.176;2023-10-31T02:54:56;2.20;;;0.80;;
49610;SDS011;35515;48.766;9.176;2023-10-31T02:57:24;1.13;;;0.80;;
49610;SDS011;35515;48.766;9.176;2023-10-31T02:59:50;2.75;;;0.90;;
49610;SDS011;35515;48.766;9.176;2023-10-31T03:02:17;1.75;;;0.95;;
49610;SDS011;35515;48.766;9.176;2023-10-31T03:04:43;1.13;;;0.82;;
49610;SDS011;35515;48.766;9.176;2023-10-31T03:07:10;2.42;;;0.80;;
49610;SDS011;35515;48.766;9.176;2023-10-31T03:09:36;1.73;;;0.80;;
49610;SDS011;35515;48.766;9.176;2023-10-31T03:12:03;1.75;;;0.82;;
49610;SDS011;35515;48.766;9.176;2023-10-31T03:14:31;1.98;;;1.10;;
49610;SDS011;35515;48.766;9.176;2023-10-31T03:16:58;3.53;;;1.00;;
49610;SDS011;35515;48.766;9.176;2023-10-31T03:19:24;4.60;;;0.93;;
49610;SDS011;35515;48.766;9.176;2023-10-31T03:21:51;3.50;;;1.35;;
49610;SDS011;35515;48.766;9.176;2023-10-31T03:24:17;2.17;;;0.88;;
49610;SDS011;35515;48.766;9.176;2023-10-31T03:26:44;4.53;;;1.00;;
49610;SDS011;35515;48.766;9.176;2023-10-31T03:29:10;1.65;;;0.80;;
49610;SDS011;35515;48.766;9.176;2023-10-31T03:31:38;2.33;;;1.02;;
49610;SDS011;35515;48.766;9.176;2023-10-31T03:34:05;2.03;;;1.00;;
49610;SDS011;35515;48.766;9.176;2023-10-31T03:36:31;1.20;;;0.73;;
49610;SDS011;35515;48.766;9.176;2023-10-31T03:38:58;2.50;;;0.90;;
49610;SDS011;35515;48.766;9.176;2023-10-31T03:41:24;1.85;;;1.23;;
49610;SDS011;35515;48.766;9.176;2023-10-31T03:43:51;1.38;;;0.90;;
49610;SDS011;35515;48.766;9.176;2023-10-31T03:46:17;1.80;;;0.90;;
49610;SDS011;35515;48.766;9.176;2023-10-31T03:48:45;2.67;;;0.93;;
49610;SDS011;35515;48.766;9.176;2023-10-31T03:51:11;1.52;;;0.85;;
49610;SDS011;35515;48.766;9.176;2023-10-31T03:53:38;1.10;;;0.93;;
49610;SDS011;35515;48.766;9.176;2023-10-31T03:56:05;1.42;;;0.90;;
49610;SDS011;35515;48.766;9.176;2023-10-31T03:58:31;2.90;;;1.55;;
49610;SDS011;35515;48.766;9.176;2023-10-31T04:00:58;2.30;;;1.00;;
49610;SDS011;35515;48.766;9.176;2023-10-31T04:03:24;2.28;;;1.05;;
49610;SDS011;35515;48.766;9.176;2023-10-31T04:05:52;1.98;;;1.02;;
49610;SDS011;35515;48.766;9.176;2023-10-31T04:08:19;4.40;;;1.63;;
49610;SDS011;35515;48.766;9.176;2023-10-31T04:10:46;3.17;;;1.08;;
49610;SDS011;35515;48.766;9.176;2023-10-31T04:13:12;1.83;;;1.13;;
49610;SDS011;35515;48.766;9.176;2023-10-31T04:15:39;1.83;;;0.90;;
49610;SDS011;35515;48.766;9.176;2023-10-31T04:18:05;3.08;;;1.30;;
49610;SDS011;35515;48.766;9.176;2023-10-31T04:20:32;3.10;;;1.02;;
49610;SDS011;35515;48.766;9.176;2023-10-31T04:23:00;2.95;;;1.02;;
49610;SDS011;35515;48.766;9.176;2023-10-31T04:25:26;3.13;;;1.00;;
49610;SDS011;35515;48.766;9.176;2023-10-31T04:27:54;1.27;;;0.95;;
49610;SDS011;35515;48.766;9.176;2023-10-31T04:30:20;1.42;;;0.80;;
49610;SDS011;35515;48.766;9.176;2023-10-31T04:32:47;1.27;;;0.90;;
49610;SDS011;35515;48.766;9.176;2023-10-31T04:35:14;1.17;;;0.90;;
49610;SDS011;35515;48.766;9.176;2023-10-31T04:37:40;2.55;;;0.95;;
49610;SDS011;35515;48.766;9.176;2023-10-31T04:40:09;1.83;;;0.98;;
49610;SDS011;35515;48.766;9.176;2023-10-31T04:45:05;1.73;;;0.85;;
49610;SDS011;35515;48.766;9.176;2023-10-31T04:47:32;1.75;;;0.93;;
49610;SDS011;35515;48.766;9.176;2023-10-31T04:49:59;1.20;;;0.90;;
49610;SDS011;35515;48.766;9.176;2023-10-31T04:52:25;2.15;;;1.60;;
49610;SDS011;35515;48.766;9.176;2023-10-31T04:54:52;1.55;;;1.00;;
49610;SDS011;35515;48.766;9.176;2023-10-31T04:57:20;1.30;;;0.95;;
49610;SDS011;35515;48.766;9.176;2023-10-31T04:59:46;1.85;;;1.15;;
49610;SDS011;35515;48.766;9.176;2023-10-31T05:02:13;1.38;;;1.10;;
49610;SDS011;35515;48.766;9.176;2023-10-31T05:04:39;2.22;;;1.25;;
49610;SDS011;35515;48.766;9.176;2023-10-31T05:07:06;3.08;;;1.08;;
49610;SDS011;35515;48.766;9.176;2023-10-31T05:09:33;2.20;;;1.17;;
49610;SDS011;35515;48.766;9.176;2023-10-31T05:12:00;2.38;;;1.08;;
49610;SDS011;35515;48.766;9.176;2023-10-31T05:14:28;3.03;;;1.33;;
49610;SDS011;35515;48.766;9.176;2023-10-31T05:16:54;2.28;;;1.00;;
49610;SDS011;35515;48.766;9.176;2023-10-31T05:19:21;3.83;;;1.08;;
49610;SDS011;35515;48.766;9.176;2023-10-31T05:21:47;1.20;;;1.10;;
49610;SDS011;35515;48.766;9.176;2023-10-31T05:24:14;5.35;;;1.90;;
49610;SDS011;35515;48.766;9.176;2023-10-31T05:26:40;2.28;;;1.17;;
49610;SDS011;35515;48.766;9.176;2023-10-31T05:29:08;2.95;;;1.20;;
49610;SDS011;35515;48.766;9.176;2023-10-31T05:31:35;1.98;;;1.05;;
49610;SDS011;35515;48.766;9.176;2023-10-31T05:34:02;3.05;;;1.10;;
49610;SDS011;35515;48.766;9.176;2023-10-31T05:36:29;0.98;;;0.88;;
49610;SDS011;35515;48.766;9.176;2023-10-31T05:38:56;1.88;;;1.00;;
49610;SDS011;35515;48.766;9.176;2023-10-31T05:41:23;1.58;;;0.95;;
49610;SDS011;35515;48.766;9.176;2023-10-31T05:43:49;1.48;;;1.05;;
49610;SDS011;35515;48.766;9.176;2023-10-31T05:46:16;1.13;;;1.00;;
49610;SDS011;35515;48.766;9.176;2023-10-31T05:48:44;2.38;;;0.90;;
49610;SDS011;35515;48.766;9.176;2023-10-31T05:51:12;1.77;;;1.10;;
49610;SDS011;35515;48.766;9.176;2023-10-31T05:53:39;0.80;;;0.80;;
49610;SDS011;35515;48.766;9.176;2023-10-31T05:56:07;1.30;;;0.95;;
49610;SDS011;35515;48.766;9.176;2023-10-31T05:58:34;2.25;;;0.93;;
49610;SDS011;35515;48.766;9.176;2023-10-31T06:01:01;1.17;;;0.90;;
49610;SDS011;35515;48.766;9.176;2023-10-31T06:03:28;1.50;;;0.95;;
49610;SDS011;35515;48.766;9.176;2023-10-31T06:05:56;2.85;;;1.00;;
49610;SDS011;35515;48.766;9.176;2023-10-31T06:08:22;1.10;;;0.90;;
49610;SDS011;35515;48.766;9.176;2023-10-31T06:10:52;1.25;;;0.90;;
49610;SDS011;35515;48.766;9.176;2023-10-31T06:13:19;1.55;;;0.90;;
49610;SDS011;35515;48.766;9.176;2023-10-31T06:15:45;2.95;;;0.90;;
49610;SDS011;35515;48.766;9.176;2023-10-31T06:18:12;2.10;;;0.80;;
49610;SDS011;35515;48.766;9.176;2023-10-31T06:20:38;1.70;;;0.88;;
49610;SDS011;35515;48.766;9.176;2023-10-31T06:23:06;2.65;;;0.80;;
49610;SDS011;35515;48.766;9.176;2023-10-31T06:25:33;1.23;;;0.70;;
49610;SDS011;35515;48.766;9.176;2023-10-31T06:27:59;2.30;;;0.95;;
49610;SDS011;35515;48.766;9.176;2023-10-31T06:30:26;2.60;;;0.90;;
49610;SDS011;35515;48.766;9.176;2023-10-31T06:32:52;1.63;;;1.00;;
49610;SDS011;35515;48.766;9.176;2023-10-31T06:35:19;2.58;;;1.05;;
49610;SDS011;35515;48.766;9.176;2023-10-31T06:37:46;2.72;;;1.00;;
49610;SDS011;35515;48.766;9.176;2023-10-31T06:40:14;4.05;;;0.90;;
49610;SDS011;35515;48.766;9.176;2023-10-31T06:42:41;4.97;;;1.13;;
49610;SDS011;35515;48.766;9.176;2023-10-31T06:45:07;0.95;;;0.90;;
49610;SDS011;35515;48.766;9.176;2023-10-31T06:47:34;1.98;;;1.00;;
49610;SDS011;35515;48.766;9.176;2023-10-31T06:50:01;1.20;;;0.90;;
49610;SDS011;35515;48.766;9.176;2023-10-31T06:52:27;1.40;;;0.90;;
49610;SDS011;35515;48.766;9.176;2023-10-31T06:54:54;6.07;;;4.03;;
49610;SDS011;35515;48.766;9.176;2023-10-31T06:57:22;3.55;;;1.90;;
49610;SDS011;35515;48.766;9.176;2023-10-31T06:59:48;3.60;;;1.15;;
49610;SDS011;35515;48.766;9.176;2023-10-31T07:02:15;1.33;;;1.05;;
49610;SDS011;35515;48.766;9.176;2023-10-31T07:04:41;1.08;;;0.90;;
49610;SDS011;35515;48.766;9.176;2023-10-31T07:07:08;1.23;;;0.93;;
49610;SDS011;35515;48.766;9.176;2023-10-31T07:09:34;3.35;;;1.20;;
49610;SDS011;35515;48.766;9.176;2023-10-31T07:12:01;1.42;;;1.10;;
49610;SDS011;35515;48.766;9.176;2023-10-31T07:14:29;3.42;;;0.90;;
49610;SDS011;35515;48.766;9.176;2023-10-31T07:16:56;3.15;;;1.10;;
49610;SDS011;35515;48.766;9.176;2023-10-31T07:19:22;2.88;;;1.10;;
49610;SDS011;35515;48.766;9.176;2023-10-31T07:21:49;2.08;;;1.00;;
49610;SDS011;35515;48.766;9.176;2023-10-31T07:24:15;2.10;;;0.90;;
49610;SDS011;35515;48.766;9.176;2023-10-31T07:26:42;1.48;;;0.90;;
49610;SDS011;35515;48.766;9.176;2023-10-31T07:29:08;2.70;;;0.90;;
49610;SDS011;35515;48.766;9.176;2023-10-31T07:31:36;0.95;;;0.80;;
49610;SDS011;35515;48.766;9.176;2023-10-31T07:34:04;2.75;;;0.98;;
49610;SDS011;35515;48.766;9.176;2023-10-31T07:36:30;1.67;;;1.10;;
49610;SDS011;35515;48.766;9.176;2023-10-31T07:38:57;2.40;;;1.10;;
49610;SDS011;35515;48.766;9.176;2023-10-31T07:41:24;1.10;;;0.82;;
49610;SDS011;35515;48.766;9.176;2023-10-31T07:43:50;1.30;;;0.80;;
49610;SDS011;35515;48.766;9.176;2023-10-31T07:46:17;2.45;;;1.00;;
49610;SDS011;35515;48.766;9.176;2023-10-31T07:48:45;1.52;;;1.00;;
49610;SDS011;35515;48.766;9.176;2023-10-31T07:51:12;2.97;;;1.10;;
49610;SDS011;35515;48.766;9.176;2023-10-31T07:53:38;1.60;;;1.20;;
49610;SDS011;35515;48.766;9.176;2023-10-31T07:56:05;3.35;;;1.17;;
49610;SDS011;35515;48.766;9.176;2023-10-31T07:58:40;3.83;;;1.05;;
49610;SDS011;35515;48.766;9.176;2023-10-31T08:01:07;3.78;;;1.25;;
49610;SDS011;35515;48.766;9.176;2023-10-31T08:03:35;1.80;;;0.82;;
49610;SDS011;35515;48.766;9.176;2023-10-31T08:06:05;1.55;;;0.98;;
49610;SDS011;35515;48.766;9.176;2023-10-31T08:08:32;3.67;;;1.20;;
49610;SDS011;35515;48.766;9.176;2023-10-31T08:10:58;1.98;;;1.33;;
49610;SDS011;35515;48.766;9.176;2023-10-31T08:13:25;2.83;;;1.13;;
49610;SDS011;35515;48.766;9.176;2023-10-31T08:15:51;1.30;;;0.82;;
49610;SDS011;35515;48.766;9.176;2023-10-31T08:18:18;2.20;;;0.98;;
49610;SDS011;35515;48.766;9.176;2023-10-31T08:20:45;2.88;;;1.00;;
49610;SDS011;35515;48.766;9.176;2023-10-31T08:23:15;1.77;;;1.00;;
49610;SDS011;35515;48.766;9.176;2023-10-31T08:25:42;2.35;;;1.02;;
49610;SDS011;35515;48.766;9.176;2023-10-31T08:28:09;1.83;;;1.13;;
49610;SDS011;35515;48.766;9.176;2023-10-31T08:30:36;2.28;;;1.15;;
49610;SDS011;35515;48.766;9.176;2023-10-31T08:33:03;1.85;;;1.13;;
49610;SDS011;35515;48.766;9.176;2023-10-31T08:35:29;3.22;;;1.10;;
49610;SDS011;35515;48.766;9.176;2023-10-31T08:37:56;2.38;;;1.73;;
49610;SDS011;35515;48.766;9.176;2023-10-31T08:40:24;1.77;;;1.10;;
49610;SDS011;35515;48.766;9.176;2023-10-31T08:42:51;1.50;;;1.20;;
49610;SDS011;35515;48.766;9.176;2023-10-31T08:45:18;2.55;;;1.17;;
49610;SDS011;35515;48.766;9.176;2023-10-31T08:47:44;2.15;;;1.00;;
49610;SDS011;35515;48.766;9.176;2023-10-31T08:50:11;2.00;;;1.15;;
49610;SDS011;35515;48.766;9.176;2023-10-31T08:52:38;2.78;;;1.00;;
49610;SDS011;35515;48.766;9.176;2023-10-31T08:55:05;1.83;;;1.00;;
49610;SDS011;35515;48.766;9.176;2023-10-31T08:57:34;2.50;;;1.00;;
49610;SDS011;35515;48.766;9.176;2023-10-31T09:00:00;2.58;;;1.30;;
49610;SDS011;35515;48.766;9.176;2023-10-31T09:02:30;4.22;;;1.35;;
49610;SDS011;35515;48.766;9.176;2023-10-31T09:04:56;3.33;;;1.50;;
49610;SDS011;35515;48.766;9.176;2023-10-31T09:07:23;2.58;;;1.20;;
49610;SDS011;35515;48.766;9.176;2023-10-31T09:09:49;3.38;;;1.55;;
49610;SDS011;35515;48.766;9.176;2023-10-31T09:12:16;4.82;;;1.60;;
49610;SDS011;35515;48.766;9.176;2023-10-31T09:14:44;3.00;;;1.52;;
49610;SDS011;35515;48.766;9.176;2023-10-31T09:17:10;2.20;;;1.00;;
49610;SDS011;35515;48.766;9.176;2023-10-31T09:19:37;4.38;;;1.30;;
49610;SDS011;35515;48.766;9.176;2023-10-31T09:22:03;1.95;;;1.10;;
49610;SDS011;35515;48.766;9.176;2023-10-31T09:24:30;2.15;;;1.25;;
49610;SDS011;35515;48.766;9.176;2023-10-31T09:26:56;3.65;;;1.30;;
49610;SDS011;35515;48.766;9.176;2023-10-31T09:29:23;2.13;;;1.10;;
49610;SDS011;35515;48.766;9.176;2023-10-31T09:31:51;2.65;;;0.90;;
49610;SDS011;35515;48.766;9.176;2023-10-31T09:34:17;1.98;;;1.20;;
49610;SDS011;35515;48.766;9.176;2023-10-31T09:36:44;1.45;;;1.05;;
49610;SDS011;35515;48.766;9.176;2023-10-31T09:39:10;2.80;;;1.20;;
49610;SDS011;35515;48.766;9.176;2023-10-31T09:41:37;2.78;;;1.25;;
49610;SDS011;35515;48.766;9.176;2023-10-31T09:44:04;2.95;;;1.35;;
49610;SDS011;35515;48.766;9.176;2023-10-31T09:46:31;3.53;;;1.40;;
49610;SDS011;35515;48.766;9.176;2023-10-31T09:48:59;3.08;;;1.10;;
49610;SDS011;35515;48.766;9.176;2023-10-31T09:51:26;3.78;;;1.40;;
49610;SDS011;35515;48.766;9.176;2023-10-31T09:53:54;3.80;;;1.17;;
49610;SDS011;35515;48.766;9.176;2023-10-31T09:56:20;2.80;;;1.38;;
49610;SDS011;35515;48.766;9.176;2023-10-31T09:58:47;4.25;;;1.60;;
49610;SDS011;35515;48.766;9.176;2023-10-31T10:01:14;3.80;;;1.48;;
49610;SDS011;35515;48.766;9.176;2023-10-31T10:03:41;2.22;;;1.45;;
49610;SDS011;35515;48.766;9.176;2023-10-31T10:06:10;5.80;;;1.67;;
49610;SDS011;35515;48.766;9.176;2023-10-31T10:08:37;3.25;;;1.20;;
49610;SDS011;35515;48.766;9.176;2023-10-31T10:11:04;2.60;;;1.23;;
49610;SDS011;35515;48.766;9.176;2023-10-31T10:13:31;3.10;;;1.15;;
49610;SDS011;35515;48.766;9.176;2023-10-31T10:15:59;3.05;;;1.30;;
49610;SDS011;35515;48.766;9.176;2023-10-31T10:18:26;2.40;;;1.15;;
49610;SDS011;35515;48.766;9.176;2023-10-31T10:20:56;2.20;;;1.08;;
49610;SDS011;35515;48.766;9.176;2023-10-31T10:23:25;4.57;;;1.67;;
49610;SDS011;35515;48.766;9.176;2023-10-31T10:25:52;2.92;;;1.52;;
49610;SDS011;35515;48.766;9.176;2023-10-31T10:28:19;3.08;;;1.52;;
49610;SDS011;35515;48.766;9.176;2023-10-31T10:30:46;3.70;;;1.90;;
49610;SDS011;35515;48.766;9.176;2023-10-31T10:33:13;4.43;;;1.67;;
49610;SDS011;35515;48.766;9.176;2023-10-31T10:35:40;3.30;;;1.80;;
49610;SDS011;35515;48.766;9.176;2023-10-31T10:38:09;4.03;;;1.70;;
49610;SDS011;35515;48.766;9.176;2023-10-31T10:40:40;6.97;;;1.37;;
49610;SDS011;35515;48.766;9.176;2023-10-31T10:43:09;4.78;;;1.75;;
49610;SDS011;35515;48.766;9.176;2023-10-31T10:45:41;3.58;;;1.52;;
49610;SDS011;35515;48.766;9.176;2023-10-31T10:48:08;3.20;;;1.35;;
49610;SDS011;35515;48.766;9.176;2023-10-31T10:50:38;5.57;;;1.40;;
49610;SDS011;35515;48.766;9.176;2023-10-31T10:53:10;3.28;;;1.60;;
49610;SDS011;35515;48.766;9.176;2023-10-31T10:55:45;3.28;;;1.35;;
49610;SDS011;35515;48.766;9.176;2023-10-31T10:58:13;2.67;;;1.17;;
49610;SDS011;35515;48.766;9.176;2023-10-31T11:00:48;2.50;;;1.30;;
49610;SDS011;35515;48.766;9.176;2023-10-31T11:03:15;3.60;;;1.30;;
49610;SDS011;35515;48.766;9.176;2023-10-31T11:05:43;2.85;;;1.17;;
49610;SDS011;35515;48.766;9.176;2023-10-31T11:08:09;3.75;;;1.20;;
49610;SDS011;35515;48.766;9.176;2023-10-31T11:10:37;8.85;;;1.90;;
49610;SDS011;35515;48.766;9.176;2023-10-31T11:13:06;3.53;;;1.70;;
49610;SDS011;35515;48.766;9.176;2023-10-31T11:15:33;1.95;;;1.17;;
49610;SDS011;35515;48.766;9.176;2023-10-31T11:18:00;4.85;;;1.50;;
49610;SDS011;35515;48.766;9.176;2023-10-31T11:20:28;1.98;;;1.55;;
49610;SDS011;35515;48.766;9.176;2023-10-31T11:22:55;4.50;;;1.52;;
49610;SDS011;35515;48.766;9.176;2023-10-31T11:25:23;4.97;;;1.42;;
49610;SDS011;35515;48.766;9.176;2023-10-31T11:27:50;5.60;;;1.52;;
49610;SDS011;35515;48.766;9.176;2023-10-31T11:30:21;3.15;;;1.60;;
49610;SDS011;35515;48.766;9.176;2023-10-31T11:32:53;5.15;;;1.50;;
49610;SDS011;35515;48.766;9.176;2023-10-31T11:35:19;3.35;;;1.35;;
49610;SDS011;35515;48.766;9.176;2023-10-31T11:37:48;2.80;;;1.58;;
49610;SDS011;35515;48.766;9.176;2023-10-31T11:40:16;4.72;;;1.80;;
49610;SDS011;35515;48.766;9.176;2023-10-31T11:42:42;4.55;;;1.50;;
49610;SDS011;35515;48.766;9.176;2023-10-31T11:45:10;5.47;;;1.90;;
49610;SDS011;35515;48.766;9.176;2023-10-31T11:47:47;3.25;;;1.55;;
49610;SDS011;35515;48.766;9.176;2023-10-31T11:50:14;2.25;;;1.20;;
49610;SDS011;35515;48.766;9.176;2023-10-31T11:52:41;3.33;;;1.80;;
49610;SDS011;35515;48.766;9.176;2023-10-31T11:55:08;3.85;;;1.38;;
49610;SDS011;35515;48.766;9.176;2023-10-31T11:57:36;2.58;;;1.20;;
49610;SDS011;35515;48.766;9.176;2023-10-31T12:00:02;3.22;;;1.60;;
49610;SDS011;35515;48.766;9.176;2023-10-31T12:02:29;3.85;;;2.08;;
49610;SDS011;35515;48.766;9.176;2023-10-31T12:05:07;5.20;;;2.00;;
49610;SDS011;35515;48.766;9.176;2023-10-31T12:07:41;4.60;;;2.10;;
49610;SDS011;35515;48.766;9.176;2023-10-31T12:10:08;4.43;;;1.63;;
49610;SDS011;35515;48.766;9.176;2023-10-31T12:12:35;3.05;;;1.30;;
49610;SDS011;35515;48.766;9.176;2023-10-31T12:15:05;5.80;;;1.60;;
49610;SDS011;35515;48.766;9.176;2023-10-31T12:17:33;2.13;;;1.20;;
49610;SDS011;35515;48.766;9.176;2023-10-31T12:20:03;2.28;;;1.27;;
49610;SDS011;35515;48.766;9.176;2023-10-31T12:22:31;4.75;;;1.67;;
49610;SDS011;35515;48.766;9.176;2023-10-31T12:25:00;5.18;;;2.00;;
49610;SDS011;35515;48.766;9.176;2023-10-31T12:27:41;3.33;;;1.83;;
49610;SDS011;35515;48.766;9.176;2023-10-31T12:30:08;2.42;;;1.60;;
49610;SDS011;35515;48.766;9.176;2023-10-31T12:32:35;2.78;;;1.33;;
49610;SDS011;35515;48.766;9.176;2023-10-31T12:35:02;2.72;;;1.35;;
49610;SDS011;35515;48.766;9.176;2023-10-31T12:37:31;2.40;;;1.48;;
49610;SDS011;35515;48.766;9.176;2023-10-31T12:39:58;3.15;;;1.30;;
49610;SDS011;35515;48.766;9.176;2023-10-31T12:42:29;2.35;;;1.45;;
49610;SDS011;35515;48.766;9.176;2023-10-31T12:44:57;6.28;;;1.27;;
49610;SDS011;35515;48.766;9.176;2023-10-31T12:47:24;2.25;;;1.13;;
49610;SDS011;35515;48.766;9.176;2023-10-31T12:50:05;2.00;;;1.10;;
49610;SDS011;35515;48.766;9.176;2023-10-31T12:55:12;3.30;;;1.50;;
49610;SDS011;35515;48.766;9.176;2023-10-31T12:57:40;2.67;;;1.40;;
49610;SDS011;35515;48.766;9.176;2023-10-31T13:00:07;3.05;;;1.50;;
49610;SDS011;35515;48.766;9.176;2023-10-31T13:02:37;3.88;;;1.25;;
49610;SDS011;35515;48.766;9.176;2023-10-31T13:05:08;2.63;;;1.05;;
49610;SDS011;35515;48.766;9.176;2023-10-31T13:07:35;2.42;;;0.95;;
49610;SDS011;35515;48.766;9.176;2023-10-31T13:10:03;3.00;;;1.15;;
49610;SDS011;35515;48.766;9.176;2023-10-31T13:12:30;1.35;;;1.02;;
49610;SDS011;35515;48.766;9.176;2023-10-31T13:14:58;1.58;;;0.95;;
49610;SDS011;35515;48.766;9.176;2023-10-31T13:17:26;2.65;;;1.00;;
49610;SDS011;35515;48.766;9.176;2023-10-31T13:19:52;3.90;;;1.60;;
49610;SDS011;35515;48.766;9.176;2023-10-31T13:22:19;2.70;;;1.10;;
49610;SDS011;35515;48.766;9.176;2023-10-31T13:24:45;2.70;;;1.20;;
49610;SDS011;35515;48.766;9.176;2023-10-31T13:27:13;1.75;;;1.25;;
49610;SDS011;35515;48.766;9.176;2023-10-31T13:29:41;2.33;;;1.20;;
49610;SDS011;35515;48.766;9.176;2023-10-31T13:32:08;3.38;;;1.15;;
49610;SDS011;35515;48.766;9.176;2023-10-31T13:34:35;3.13;;;2.15;;
49610;SDS011;35515;48.766;9.176;2023-10-31T13:37:01;2.45;;;1.50;;
49610;SDS011;35515;48.766;9.176;2023-10-31T13:39:28;2.40;;;1.40;;
49610;SDS011;35515;48.766;9.176;2023-10-31T13:41:55;2.72;;;1.30;;
49610;SDS011;35515;48.766;9.176;2023-10-31T13:44:23;3.00;;;1.40;;
49610;SDS011;35515;48.766;9.176;2023-10-31T13:46:49;2.30;;;1.25;;
49610;SDS011;35515;48.766;9.176;2023-10-31T13:49:16;3.72;;;1.50;;
49610;SDS011;35515;48.766;9.176;2023-10-31T13:51:42;1.90;;;1.40;;
49610;SDS011;35515;48.766;9.176;2023-10-31T13:54:09;2.72;;;1.52;;
49610;SDS011;35515;48.766;9.176;2023-10-31T13:56:35;2.83;;;1.33;;
49610;SDS011;35515;48.766;9.176;2023-10-31T13:59:02;2.20;;;1.20;;
49610;SDS011;35515;48.766;9.176;2023-10-31T14:01:30;4.55;;;2.25;;
49610;SDS011;35515;48.766;9.176;2023-10-31T14:03:56;2.53;;;1.38;;
49610;SDS011;35515;48.766;9.176;2023-10-31T14:06:23;3.88;;;1.55;;
49610;SDS011;35515;48.766;9.176;2023-10-31T14:08:54;2.00;;;1.33;;
49610;SDS011;35515;48.766;9.176;2023-10-31T14:11:21;1.70;;;1.20;;
49610;SDS011;35515;48.766;9.176;2023-10-31T14:13:47;1.40;;;1.15;;
49610;SDS011;35515;48.766;9.176;2023-10-31T14:16:15;2.25;;;1.15;;
49610;SDS011;35515;48.766;9.176;2023-10-31T14:18:43;1.48;;;0.90;;
49610;SDS011;35515;48.766;9.176;2023-10-31T14:21:11;1.52;;;1.02;;
49610;SDS011;35515;48.766;9.176;2023-10-31T14:23:38;2.35;;;0.90;;
49610;SDS011;35515;48.766;9.176;2023-10-31T14:26:04;3.28;;;1.20;;
49610;SDS011;35515;48.766;9.176;2023-10-31T14:28:31;1.40;;;0.90;;
49610;SDS011;35515;48.766;9.176;2023-10-31T14:30:58;1.20;;;0.80;;
49610;SDS011;35515;48.766;9.176;2023-10-31T14:33:24;2.75;;;1.00;;
49610;SDS011;35515;48.766;9.176;2023-10-31T14:35:52;2.03;;;1.13;;
49610;SDS011;35515;48.766;9.176;2023-10-31T14:38:19;2.70;;;1.10;;
49610;SDS011;35515;48.766;9.176;2023-10-31T14:40:45;2.00;;;1.15;;
49610;SDS011;35515;48.766;9.176;2023-10-31T14:43:11;1.88;;;1.20;;
49610;SDS011;35515;48.766;9.176;2023-10-31T14:45:43;1.15;;;0.90;;
49610;SDS011;35515;48.766;9.176;2023-10-31T14:48:09;1.40;;;0.88;;
49610;SDS011;35515;48.766;9.176;2023-10-31T14:50:36;1.58;;;0.70;;
49610;SDS011;35515;48.766;9.176;2023-10-31T14:53:05;1.17;;;0.95;;